createdAt,value
2022-09-06T00:01:44.053Z,1.50
2022-09-06T00:04:15.600Z,1.60
2022-09-06T00:06:45.682Z,1.40
2022-09-06T00:09:15.654Z,1.42
2022-09-06T00:11:45.915Z,1.52
2022-09-06T00:14:16.009Z,1.70
2022-09-06T00:16:46.496Z,1.70
2022-09-06T00:19:17.039Z,1.35
2022-09-06T00:21:47.047Z,1.60
2022-09-06T00:24:17.556Z,1.33
2022-09-06T00:26:49.247Z,1.70
2022-09-06T00:29:19.292Z,1.70
2022-09-06T00:31:49.350Z,1.35
2022-09-06T00:34:19.426Z,1.52
2022-09-06T00:36:49.673Z,1.48
2022-09-06T00:39:20.087Z,1.90
2022-09-06T00:41:50.231Z,1.40
2022-09-06T00:44:20.352Z,1.30
2022-09-06T00:46:50.794Z,1.90
2022-09-06T00:49:33.459Z,1.33
2022-09-06T00:52:06.899Z,1.67
2022-09-06T00:54:36.998Z,1.45
2022-09-06T00:57:07.412Z,1.60
2022-09-06T00:59:38.919Z,1.27
2022-09-06T01:02:10.528Z,1.60
2022-09-06T01:04:41.836Z,1.80
2022-09-06T01:07:49.927Z,1.58
2022-09-06T01:10:48.070Z,1.48
2022-09-06T01:13:24.755Z,1.60
2022-09-06T01:16:10.387Z,1.60
2022-09-06T01:19:17.101Z,1.70
2022-09-06T01:21:47.449Z,2.08
2022-09-06T01:24:32.530Z,1.60
2022-09-06T01:27:28.491Z,1.50
2022-09-06T01:30:06.514Z,1.50
2022-09-06T01:32:57.953Z,1.48
2022-09-06T01:35:33.992Z,1.90
2022-09-06T01:38:04.766Z,1.48
2022-09-06T01:40:37.556Z,1.63
2022-09-06T01:43:11.087Z,1.42
2022-09-06T01:46:05.476Z,1.55
2022-09-06T01:48:46.337Z,1.50
2022-09-06T01:51:49.548Z,1.60
2022-09-06T01:54:41.163Z,1.80
2022-09-06T01:57:24.698Z,1.65
2022-09-06T01:59:54.662Z,1.52
2022-09-06T02:02:54.079Z,1.73
2022-09-06T02:05:30.038Z,1.75
2022-09-06T02:08:06.676Z,1.75
2022-09-06T02:10:44.791Z,1.75
2022-09-06T02:13:18.188Z,1.73
2022-09-06T02:16:04.031Z,1.48
2022-09-06T02:18:38.431Z,1.80
2022-09-06T02:21:08.526Z,1.88
2022-09-06T02:23:40.592Z,1.80
2022-09-06T02:26:20.096Z,1.67
2022-09-06T02:28:50.171Z,1.80
2022-09-06T02:31:25.543Z,1.73
2022-09-06T02:33:55.509Z,1.50
2022-09-06T02:36:25.503Z,1.60
2022-09-06T02:38:56.096Z,1.80
2022-09-06T02:41:26.096Z,1.73
2022-09-06T02:43:56.074Z,1.77
2022-09-06T02:46:26.160Z,1.52
2022-09-06T02:48:56.266Z,1.85
2022-09-06T02:51:26.226Z,1.70
2022-09-06T02:53:56.313Z,1.27
2022-09-06T02:56:26.266Z,1.75
2022-09-06T02:58:56.727Z,1.58
2022-09-06T03:02:09.572Z,1.52
2022-09-06T03:04:22.404Z,1.38
2022-09-06T03:06:55.548Z,1.40
2022-09-06T03:09:28.175Z,1.58
2022-09-06T03:11:58.235Z,1.67
2022-09-06T03:14:28.226Z,1.70
2022-09-06T03:16:58.554Z,1.83
2022-09-06T03:19:28.658Z,1.83
2022-09-06T03:21:58.618Z,1.95
2022-09-06T03:24:28.513Z,2.03
2022-09-06T03:26:58.501Z,1.80
2022-09-06T03:29:28.523Z,1.70
2022-09-06T03:31:58.507Z,1.52
2022-09-06T03:34:28.437Z,1.92
2022-09-06T03:36:58.372Z,1.80
2022-09-06T03:39:35.761Z,1.50
2022-09-06T03:42:06.446Z,2.03
2022-09-06T03:44:43.266Z,1.83
2022-09-06T03:47:19.413Z,1.88
2022-09-06T03:49:49.655Z,1.80
2022-09-06T03:52:19.834Z,2.17
2022-09-06T03:54:49.933Z,1.83
2022-09-06T03:57:19.867Z,2.17
2022-09-06T03:59:49.987Z,1.90
2022-09-06T04:02:20.210Z,2.03
2022-09-06T04:04:50.187Z,1.73
2022-09-06T04:07:20.111Z,1.90
2022-09-06T04:09:50.304Z,1.95
2022-09-06T04:12:20.547Z,1.90
2022-09-06T04:14:50.555Z,1.90
2022-09-06T04:17:20.505Z,1.85
2022-09-06T04:19:50.532Z,1.70
2022-09-06T04:22:20.513Z,1.70
2022-09-06T04:24:50.464Z,1.60
2022-09-06T04:27:20.495Z,1.80
2022-09-06T04:29:50.483Z,1.70
2022-09-06T04:32:20.723Z,1.83
2022-09-06T04:34:50.752Z,1.92
2022-09-06T04:37:21.275Z,1.70
2022-09-06T04:39:51.423Z,1.80
2022-09-06T04:42:21.431Z,1.90
2022-09-06T04:44:51.352Z,2.05
2022-09-06T04:47:21.412Z,2.25
2022-09-06T04:49:51.530Z,2.20
2022-09-06T04:52:21.738Z,2.10
2022-09-06T04:54:51.645Z,2.50
2022-09-06T04:57:21.710Z,3.80
2022-09-06T04:59:51.688Z,3.78
2022-09-06T05:02:34.048Z,4.35
2022-09-06T05:05:12.579Z,4.90
2022-09-06T05:07:42.654Z,5.30
2022-09-06T05:10:15.473Z,5.20
2022-09-06T05:12:45.470Z,7.32
2022-09-06T05:15:15.524Z,6.35
2022-09-06T05:17:45.638Z,6.70
2022-09-06T05:20:15.810Z,7.38
2022-09-06T05:22:46.288Z,7.03
2022-09-06T05:25:16.276Z,6.90
2022-09-06T05:27:46.307Z,7.35
2022-09-06T05:30:16.902Z,7.03
2022-09-06T05:32:46.993Z,8.02
2022-09-06T05:35:17.041Z,7.55
2022-09-06T05:37:46.950Z,7.35
2022-09-06T05:40:22.659Z,8.93
2022-09-06T05:42:56.231Z,8.80
2022-09-06T05:45:26.331Z,8.23
2022-09-06T05:47:56.396Z,8.70
2022-09-06T05:50:26.443Z,7.88
2022-09-06T05:52:56.409Z,8.70
2022-09-06T05:55:26.441Z,9.02
2022-09-06T05:57:56.543Z,8.95
2022-09-06T06:00:26.541Z,8.32
2022-09-06T06:03:03.420Z,8.90
2022-09-06T06:05:34.412Z,7.63
2022-09-06T06:10:44.658Z,7.32
2022-09-06T06:13:14.969Z,8.35
2022-09-06T06:15:48.102Z,7.45
2022-09-06T06:18:22.363Z,7.97
2022-09-06T06:20:58.831Z,8.30
2022-09-06T06:23:29.312Z,7.38
2022-09-06T06:25:59.267Z,7.75
2022-09-06T06:28:29.288Z,7.07
2022-09-06T06:30:59.244Z,7.90
2022-09-06T06:33:29.767Z,6.95
2022-09-06T06:36:03.997Z,7.97
2022-09-06T06:38:35.087Z,7.40
2022-09-06T06:41:07.006Z,7.22
2022-09-06T06:43:38.896Z,7.05
2022-09-06T06:46:19.170Z,7.57
2022-09-06T06:48:54.046Z,7.25
2022-09-06T06:51:26.532Z,6.40
2022-09-06T06:53:58.065Z,7.47
2022-09-06T06:56:32.794Z,7.13
2022-09-06T06:59:03.963Z,7.15
2022-09-06T07:01:34.591Z,6.45
2022-09-06T07:04:05.278Z,6.97
2022-09-06T07:12:29.188Z,6.30
2022-09-06T07:14:59.428Z,6.70
2022-09-06T07:17:29.449Z,6.20
2022-09-06T07:20:15.149Z,6.75
2022-09-06T07:22:45.727Z,6.47
2022-09-06T07:25:21.230Z,6.50
2022-09-06T07:28:03.920Z,6.90
2022-09-06T07:30:38.143Z,5.97
2022-09-06T07:33:08.243Z,6.72
2022-09-06T07:35:38.142Z,6.03
2022-09-06T07:38:08.202Z,5.88
2022-09-06T07:40:38.402Z,6.03
2022-09-06T07:43:08.450Z,6.28
2022-09-06T07:45:38.843Z,5.55
2022-09-06T07:48:08.903Z,6.30
2022-09-06T07:53:23.047Z,8.48
2022-09-06T07:56:01.949Z,9.85
2022-09-06T07:58:32.332Z,10.23
2022-09-06T08:01:33.639Z,11.52
2022-09-06T08:04:05.373Z,11.02
2022-09-06T08:09:28.041Z,10.80
2022-09-06T08:11:57.975Z,11.85
2022-09-06T08:14:28.047Z,11.32
2022-09-06T08:16:58.031Z,11.52
2022-09-06T08:19:27.988Z,11.27
2022-09-06T08:21:57.999Z,10.65
2022-09-06T08:24:28.190Z,9.88
2022-09-06T08:26:58.268Z,9.85
2022-09-06T08:29:28.597Z,9.02
2022-09-06T08:31:58.660Z,9.38
2022-09-06T08:34:28.688Z,9.18
2022-09-06T08:36:58.970Z,8.85
2022-09-06T08:39:29.132Z,8.50
2022-09-06T08:42:04.168Z,8.43
2022-09-06T08:47:30.045Z,8.75
2022-09-06T08:50:07.297Z,8.13
2022-09-06T08:55:55.330Z,7.85
2022-09-06T08:59:07.838Z,7.03
2022-09-06T09:01:57.311Z,8.30
2022-09-06T09:04:28.298Z,7.13
2022-09-06T09:07:02.140Z,7.80
2022-09-06T09:09:32.468Z,8.07
2022-09-06T09:12:02.507Z,7.47
2022-09-06T09:14:36.591Z,7.00
2022-09-06T09:17:17.324Z,7.25
2022-09-06T09:19:47.351Z,7.32
2022-09-06T09:22:19.085Z,6.47
2022-09-06T09:24:49.225Z,6.90
2022-09-06T09:27:20.583Z,6.25
2022-09-06T09:32:52.645Z,6.38
2022-09-06T09:35:32.587Z,5.90
2022-09-06T09:38:12.461Z,6.47
2022-09-06T09:40:56.518Z,6.38
2022-09-06T09:43:32.424Z,7.10
2022-09-06T09:46:14.824Z,6.50
2022-09-06T09:49:15.133Z,6.53
2022-09-06T09:51:47.026Z,7.00
2022-09-06T09:54:32.271Z,6.13
2022-09-06T09:57:04.516Z,6.53
2022-09-06T09:59:34.542Z,6.55
2022-09-06T10:02:17.551Z,6.50
2022-09-06T10:04:51.546Z,7.00
2022-09-06T10:07:27.370Z,6.05
2022-09-06T10:10:06.172Z,6.93
2022-09-06T10:12:42.843Z,6.65
2022-09-06T10:15:13.811Z,6.10
2022-09-06T10:17:52.865Z,5.80
2022-09-06T10:20:52.861Z,6.38
2022-09-06T10:26:49.354Z,5.97
2022-09-06T10:29:45.137Z,6.18
2022-09-06T10:32:40.520Z,5.90
2022-09-06T10:35:22.998Z,6.00
2022-09-06T10:38:15.253Z,5.97
2022-09-06T10:41:14.196Z,5.40
2022-09-06T10:44:07.649Z,5.78
2022-09-06T10:46:38.405Z,5.13
2022-09-06T10:49:10.871Z,5.70
2022-09-06T10:51:45.257Z,6.15
2022-09-06T10:54:16.055Z,5.53
2022-09-06T10:56:58.271Z,5.45
2022-09-06T10:59:43.388Z,5.55
2022-09-06T11:02:35.357Z,6.00
2022-09-06T11:11:28.356Z,5.18
2022-09-06T11:13:59.712Z,5.32
2022-09-06T11:16:34.596Z,5.13
2022-09-06T11:19:10.093Z,5.85
2022-09-06T11:22:00.434Z,5.25
2022-09-06T11:25:08.512Z,5.70
2022-09-06T11:27:42.749Z,5.55
2022-09-06T11:30:19.220Z,5.40
2022-09-06T11:32:52.884Z,5.47
2022-09-06T11:35:37.217Z,4.97
2022-09-06T11:38:17.170Z,5.35
2022-09-06T11:41:07.171Z,5.15
2022-09-06T11:43:46.075Z,4.93
2022-09-06T11:46:37.747Z,5.35
2022-09-06T11:49:32.076Z,5.38
2022-09-06T11:52:02.716Z,5.55
2022-09-06T11:54:50.809Z,5.07
2022-09-06T11:57:24.944Z,4.50
2022-09-06T11:59:58.378Z,4.82
2022-09-06T12:02:39.641Z,4.90
2022-09-06T12:05:12.906Z,5.28
2022-09-06T12:08:13.369Z,4.63
2022-09-06T12:10:52.571Z,5.43
2022-09-06T12:13:48.708Z,4.55
2022-09-06T12:16:19.707Z,5.40
2022-09-06T12:18:49.763Z,5.18
2022-09-06T12:21:38.277Z,5.03
2022-09-06T12:24:10.294Z,4.88
2022-09-06T12:26:55.628Z,5.10
2022-09-06T12:29:28.716Z,4.70
2022-09-06T12:32:05.080Z,5.00
2022-09-06T12:34:36.468Z,5.53
2022-09-06T12:37:08.340Z,4.75
2022-09-06T12:39:38.442Z,5.50
2022-09-06T12:42:12.648Z,4.88
2022-09-06T12:44:50.304Z,4.43
2022-09-06T12:47:27.996Z,4.50
2022-09-06T12:50:11.359Z,4.90
2022-09-06T12:52:54.229Z,5.45
2022-09-06T12:55:34.994Z,4.45
2022-09-06T12:58:08.745Z,4.40
2022-09-06T13:00:52.890Z,5.07
2022-09-06T13:03:35.988Z,4.85
2022-09-06T13:06:07.171Z,4.60
2022-09-06T13:08:48.096Z,4.60
2022-09-06T13:11:19.783Z,4.43
2022-09-06T13:13:50.887Z,4.50
2022-09-06T13:16:25.621Z,4.57
2022-09-06T13:18:56.064Z,4.03
2022-09-06T13:21:34.025Z,4.68
2022-09-06T13:24:05.356Z,4.25
2022-09-06T13:26:40.162Z,4.70
2022-09-06T13:29:23.282Z,4.32
2022-09-06T13:31:54.572Z,4.25
2022-09-06T13:34:32.511Z,4.22
2022-09-06T13:37:09.634Z,5.07
2022-09-06T13:39:40.305Z,4.80
2022-09-06T13:42:25.315Z,4.70
2022-09-06T13:44:58.756Z,4.85
2022-09-06T13:47:31.662Z,4.65
2022-09-06T13:50:01.582Z,4.35
2022-09-06T13:52:31.696Z,4.57
2022-09-06T13:55:01.625Z,4.45
2022-09-06T13:57:32.584Z,4.63
2022-09-06T14:00:02.557Z,4.00
2022-09-06T14:02:36.890Z,4.65
2022-09-06T14:05:07.109Z,4.38
2022-09-06T14:07:37.494Z,4.45
2022-09-06T14:10:07.966Z,4.25
2022-09-06T14:12:38.130Z,4.20
2022-09-06T14:15:08.729Z,4.50
2022-09-06T14:17:38.722Z,4.45
2022-09-06T14:20:09.397Z,4.47
2022-09-06T14:22:39.382Z,4.25
2022-09-06T14:25:10.250Z,5.13
2022-09-06T14:27:40.191Z,4.43
2022-09-06T14:30:10.650Z,4.28
2022-09-06T14:32:40.612Z,4.50
2022-09-06T14:35:11.048Z,4.47
2022-09-06T14:37:41.197Z,4.70
2022-09-06T14:40:12.144Z,4.30
2022-09-06T14:42:42.117Z,4.10
2022-09-06T14:45:12.355Z,4.10
2022-09-06T14:47:42.399Z,4.15
2022-09-06T14:50:12.574Z,4.07
2022-09-06T14:52:42.653Z,4.40
2022-09-06T14:55:13.218Z,4.30
2022-09-06T14:57:43.275Z,4.32
2022-09-06T15:00:13.918Z,4.43
2022-09-06T15:02:45.219Z,4.13
2022-09-06T15:05:15.233Z,4.45
2022-09-06T15:07:45.280Z,3.92
2022-09-06T15:10:15.632Z,4.40
2022-09-06T15:12:45.598Z,4.20
2022-09-06T15:15:15.549Z,4.57
2022-09-06T15:17:46.652Z,4.10
2022-09-06T15:20:18.133Z,4.00
2022-09-06T15:22:56.311Z,4.40
2022-09-06T15:25:39.423Z,4.50
2022-09-06T15:28:09.456Z,4.38
2022-09-06T15:30:41.107Z,4.78
2022-09-06T15:33:11.437Z,6.82
2022-09-06T15:35:41.852Z,7.00
2022-09-06T15:38:13.007Z,6.60
2022-09-06T15:40:43.017Z,6.00
2022-09-06T15:43:12.953Z,5.95
2022-09-06T15:45:50.506Z,5.40
2022-09-06T15:48:20.880Z,5.57
2022-09-06T15:50:51.898Z,5.82
2022-09-06T15:53:22.174Z,6.18
2022-09-06T15:55:58.047Z,5.70
2022-09-06T15:58:28.190Z,5.15
2022-09-06T16:01:14.689Z,5.30
2022-09-06T16:03:46.477Z,5.72
2022-09-06T16:09:02.146Z,5.82
2022-09-06T16:11:33.825Z,5.28
2022-09-06T16:14:05.002Z,5.70
2022-09-06T16:16:36.810Z,5.80
2022-09-06T16:19:07.024Z,5.35
2022-09-06T16:21:38.047Z,5.60
2022-09-06T16:24:09.621Z,5.65
2022-09-06T16:26:41.470Z,5.55
2022-09-06T16:29:12.590Z,5.63
2022-09-06T16:31:42.716Z,5.22
2022-09-06T16:34:12.971Z,5.53
2022-09-06T16:36:43.018Z,5.68
2022-09-06T16:39:13.033Z,5.53
2022-09-06T16:41:44.742Z,5.20
2022-09-06T16:44:17.591Z,5.25
2022-09-06T16:46:48.681Z,5.80
2022-09-06T16:49:20.245Z,4.97
2022-09-06T16:51:51.174Z,4.78
2022-09-06T16:54:21.331Z,4.80
2022-09-06T16:56:51.368Z,5.40
2022-09-06T16:59:22.891Z,5.25
2022-09-06T17:01:53.416Z,5.15
2022-09-06T17:04:24.547Z,4.88
2022-09-06T17:06:54.612Z,5.10
2022-09-06T17:09:26.077Z,5.15
2022-09-06T17:11:56.273Z,5.68
2022-09-06T17:14:26.330Z,5.10
2022-09-06T17:17:08.527Z,5.18
2022-09-06T17:19:39.485Z,5.20
2022-09-06T17:22:11.449Z,5.15
2022-09-06T17:24:42.562Z,5.20
2022-09-06T17:27:12.602Z,5.35
2022-09-06T17:29:42.638Z,4.82
2022-09-06T17:32:12.597Z,4.82
2022-09-06T17:34:42.867Z,4.43
2022-09-06T17:37:12.852Z,4.82
2022-09-06T17:39:43.452Z,5.00
2022-09-06T17:42:13.507Z,4.97
2022-09-06T17:44:43.551Z,4.80
2022-09-06T17:47:14.087Z,4.85
2022-09-06T17:49:44.555Z,5.20
2022-09-06T17:52:15.052Z,5.03
2022-09-06T17:54:47.785Z,4.63
2022-09-06T17:57:17.800Z,4.83
2022-09-06T17:59:47.824Z,5.05
2022-09-06T18:02:17.805Z,4.78
2022-09-06T18:04:48.306Z,5.10
2022-09-06T18:07:18.646Z,4.88
2022-09-06T18:09:48.924Z,4.80
2022-09-06T18:12:20.764Z,4.60
2022-09-06T18:14:50.833Z,4.53
2022-09-06T18:17:20.748Z,5.05
2022-09-06T18:19:50.763Z,4.60
2022-09-06T18:22:20.814Z,4.95
2022-09-06T18:24:53.077Z,4.80
2022-09-06T18:27:26.298Z,4.43
2022-09-06T18:29:56.840Z,4.68
2022-09-06T18:32:26.858Z,4.50
2022-09-06T18:34:56.794Z,4.63
2022-09-06T18:37:27.549Z,4.50
2022-09-06T18:39:57.526Z,4.57
2022-09-06T18:42:28.431Z,5.15
2022-09-06T18:44:58.373Z,4.47
2022-09-06T18:47:28.334Z,4.47
2022-09-06T18:49:58.251Z,4.72
2022-09-06T18:52:28.174Z,4.82
2022-09-06T18:54:58.092Z,4.20
2022-09-06T18:57:28.113Z,4.72
2022-09-06T18:59:58.060Z,4.50
2022-09-06T19:02:29.649Z,4.40
2022-09-06T19:05:00.429Z,4.18
2022-09-06T19:07:30.473Z,4.38
2022-09-06T19:10:00.443Z,4.85
2022-09-06T19:12:30.435Z,4.38
2022-09-06T19:15:00.355Z,4.28
2022-09-06T19:17:30.513Z,4.72
2022-09-06T19:20:00.826Z,4.45
2022-09-06T19:22:30.734Z,4.35
2022-09-06T19:25:01.085Z,4.47
2022-09-06T19:27:31.050Z,4.32
2022-09-06T19:30:01.654Z,4.22
2022-09-06T19:32:31.730Z,4.43
2022-09-06T19:35:02.634Z,4.47
2022-09-06T19:37:32.851Z,4.47
2022-09-06T19:40:02.936Z,4.00
2022-09-06T19:42:32.883Z,4.15
2022-09-06T19:45:02.859Z,4.00
2022-09-06T19:47:32.774Z,4.88
2022-09-06T19:50:02.761Z,4.82
2022-09-06T19:52:32.766Z,4.25
2022-09-06T19:55:02.708Z,4.32
2022-09-06T19:57:32.630Z,3.92
2022-09-06T20:00:02.600Z,4.30
2022-09-06T20:02:41.367Z,4.00
2022-09-06T20:05:11.898Z,4.43
2022-09-06T20:07:41.911Z,4.50
2022-09-06T20:10:12.071Z,4.30
2022-09-06T20:12:42.028Z,4.57
2022-09-06T20:15:12.892Z,4.05
2022-09-06T20:17:42.867Z,4.35
2022-09-06T20:20:13.381Z,4.20
2022-09-06T20:22:46.761Z,4.18
2022-09-06T20:25:17.230Z,4.10
2022-09-06T20:27:47.223Z,3.97
2022-09-06T20:30:17.181Z,4.40
2022-09-06T20:32:47.125Z,3.88
2022-09-06T20:35:17.439Z,4.00
2022-09-06T20:37:47.361Z,4.18
2022-09-06T20:40:17.400Z,4.10
2022-09-06T20:42:47.365Z,4.22
2022-09-06T20:45:18.868Z,4.15
2022-09-06T20:47:48.922Z,4.47
2022-09-06T20:50:18.981Z,3.67
2022-09-06T20:52:48.979Z,4.15
2022-09-06T20:55:19.013Z,3.90
2022-09-06T20:57:49.546Z,3.92
2022-09-06T21:00:19.608Z,3.72
2022-09-06T21:02:49.583Z,4.20
2022-09-06T21:05:19.555Z,3.95
2022-09-06T21:07:49.521Z,4.32
2022-09-06T21:10:19.534Z,4.10
2022-09-06T21:12:49.583Z,3.60
2022-09-06T21:15:19.589Z,3.90
2022-09-06T21:17:49.554Z,3.78
2022-09-06T21:20:19.623Z,3.65
2022-09-06T21:22:49.517Z,3.53
2022-09-06T21:25:19.448Z,4.35
2022-09-06T21:27:52.655Z,4.00
2022-09-06T21:30:25.136Z,3.90
2022-09-06T21:32:56.231Z,3.83
2022-09-06T21:35:26.226Z,4.40
2022-09-06T21:37:56.142Z,4.18
2022-09-06T21:40:26.539Z,3.95
2022-09-06T21:42:56.506Z,4.13
2022-09-06T21:45:26.554Z,4.18
2022-09-06T21:47:56.519Z,4.07
2022-09-06T21:50:26.525Z,3.75
2022-09-06T21:52:56.562Z,3.72
2022-09-06T21:55:26.975Z,4.05
2022-09-06T21:57:56.917Z,4.05
2022-09-06T22:00:27.636Z,4.25
2022-09-06T22:02:57.636Z,3.60
2022-09-06T22:05:27.598Z,3.90
2022-09-06T22:07:57.624Z,3.67
2022-09-06T22:10:28.032Z,3.92
2022-09-06T22:12:57.960Z,3.63
2022-09-06T22:15:27.952Z,3.95
2022-09-06T22:17:58.360Z,3.88
2022-09-06T22:20:28.306Z,4.30
2022-09-06T22:22:58.203Z,3.95
2022-09-06T22:25:28.198Z,4.07
2022-09-06T22:27:58.381Z,3.95
2022-09-06T22:30:28.690Z,3.40
2022-09-06T22:32:58.986Z,4.13
2022-09-06T22:35:28.994Z,3.58
2022-09-06T22:37:58.916Z,3.80
2022-09-06T22:40:29.646Z,3.65
2022-09-06T22:42:59.590Z,3.90
2022-09-06T22:45:30.911Z,3.78
2022-09-06T22:48:04.527Z,3.80
2022-09-06T22:50:35.401Z,3.90
2022-09-06T22:53:05.634Z,3.28
2022-09-06T22:55:35.824Z,4.03
2022-09-06T22:58:06.557Z,4.10
2022-09-06T23:00:39.867Z,3.53
2022-09-06T23:03:12.012Z,4.13
2022-09-06T23:05:45.486Z,3.78
2022-09-06T23:08:16.570Z,3.63
2022-09-06T23:10:46.628Z,4.05
2022-09-06T23:13:16.701Z,3.85
2022-09-06T23:15:47.581Z,3.47
2022-09-06T23:18:17.554Z,3.72
2022-09-06T23:20:47.476Z,3.85
2022-09-06T23:23:17.426Z,4.05
2022-09-06T23:25:48.610Z,3.80
2022-09-06T23:28:18.561Z,3.42
2022-09-06T23:30:48.501Z,3.65
2022-09-06T23:33:18.498Z,3.60
2022-09-06T23:35:48.560Z,4.15
2022-09-06T23:38:18.606Z,3.80
2022-09-06T23:40:48.554Z,4.22
2022-09-06T23:43:18.590Z,4.00
2022-09-06T23:45:48.542Z,3.97
2022-09-06T23:48:18.510Z,3.50
2022-09-06T23:50:48.798Z,4.50
2022-09-06T23:53:19.202Z,4.00
2022-09-06T23:55:49.236Z,3.83
2022-09-06T23:58:19.277Z,4.13
